Time;durP1;ratioP1;P1;durP2;ratioP2;P2;SDS_P1;SDS_P2;PMS_P1;PMS_P2;Temp;Humidity;BMP_temperature;BMP_pressure;BME280_temperature;BME280_humidity;BME280_pressure;Samples;Min_cycle;Max_cycle;Signal;HPM_P1;HPM_P2
2024/01/16 04:58:13;;;;;;;;;;;-8.60;99.90;;;;;;5602041;23;19926;-73
2024/01/16 05:00:39;;;;;;;;;;;-9.80;99.90;;;;;;4977331;28;19926;-72
2024/01/16 05:03:06;;;;;;;;;;;-9.90;99.90;;;;;;4977521;28;19926;-72
2024/01/16 05:05:33;;;;;;;;;;;-9.90;99.90;;;;;;4977576;28;19930;-72
2024/01/16 05:08:01;;;;;;;;;;;-9.90;99.90;;;;;;4977482;28;19965;-72
2024/01/16 05:10:27;;;;;;;;;;;-9.90;99.90;;;;;;4977147;28;20347;-72
2024/01/16 05:12:54;;;;;;;;;;;-9.90;99.90;;;;;;4977632;28;19930;-73
2024/01/16 05:15:22;;;;;;;;;;;-9.90;99.90;;;;;;4977393;28;19926;-73
2024/01/16 05:17:49;;;;;;;;;;;-9.90;99.90;;;;;;4977476;28;19927;-72
2024/01/16 05:20:15;;;;;;;;;;;-10.00;99.90;;;;;;4977545;28;20002;-72
2024/01/16 05:22:42;;;;;;;;;;;-10.00;99.90;;;;;;4977310;28;19933;-72
2024/01/16 05:25:09;;;;;;;;;;;-10.00;99.90;;;;;;4977459;28;19980;-72
2024/01/16 05:27:35;;;;;;;;;;;-9.90;99.90;;;;;;4977226;28;19981;-72
2024/01/16 05:30:02;;;;;;;;;;;-10.00;99.90;;;;;;4977256;28;19929;-74
2024/01/16 05:32:30;;;;;;;;;;;-10.00;99.90;;;;;;4977669;28;19926;-74
2024/01/16 05:34:57;;;;;;;;;;;-9.90;99.90;;;;;;4976603;28;19926;-75
2024/01/16 05:37:23;;;;;;;;;;;-9.80;99.90;;;;;;4977300;28;19962;-74
2024/01/16 05:39:50;;;;;;;;;;;-10.00;99.90;;;;;;4977939;28;19933;-74
2024/01/16 05:42:17;;;;;;;;;;;-10.00;99.90;;;;;;4977522;28;20272;-73
2024/01/16 05:44:43;;;;;;;;;;;-10.00;99.90;;;;;;4977012;28;19926;-73
2024/01/16 05:47:10;;;;;;;;;;;-10.00;99.90;;;;;;4976467;28;20300;-73
2024/01/16 05:49:38;;;;;;;;;;;-10.00;99.90;;;;;;4977100;28;19926;-72
2024/01/16 05:52:05;;;;;;;;;;;-10.10;99.90;;;;;;4976694;28;20332;-72
2024/01/16 05:54:31;;;;;;;;;;;-10.00;99.90;;;;;;4976535;28;20515;-72
2024/01/16 05:56:58;;;;;;;;;;;-10.10;99.90;;;;;;4976476;28;20383;-72
2024/01/16 05:59:24;;;;;;;;;;;-10.10;99.90;;;;;;4976132;28;19934;-73
2024/01/16 06:01:51;;;;;;;;;;;-10.10;99.90;;;;;;4977027;28;19926;-73
2024/01/16 06:04:18;;;;;;;;;;;-10.10;99.90;;;;;;4976839;28;19933;-73
2024/01/16 06:06:47;;;;;;;;;;;-10.10;99.90;;;;;;4976534;28;20360;-74
2024/01/16 06:09:14;;;;;;;;;;;-10.00;99.90;;;;;;4976233;28;19926;-74
2024/01/16 06:11:41;;;;;;;;;;;-10.00;99.90;;;;;;4976593;28;20363;-72
2024/01/16 06:14:08;;;;;;;;;;;-9.90;99.90;;;;;;4976363;28;19981;-71
2024/01/16 06:16:34;;;;;;;;;;;-10.00;99.90;;;;;;4977121;28;19926;-71
2024/01/16 06:19:01;;;;;;;;;;;-9.90;99.90;;;;;;4975922;28;20402;-73
2024/01/16 06:21:27;;;;;;;;;;;-9.80;99.90;;;;;;4976164;28;19926;-73
2024/01/16 06:23:55;;;;;;;;;;;-9.80;99.90;;;;;;4976109;28;19966;-73
2024/01/16 06:26:22;;;;;;;;;;;-9.80;99.90;;;;;;4976219;28;19937;-73
2024/01/16 11:56:40;;;;;;;;;;;-1.60;99.90;;;;;;5096779;23;19926;-76
2024/01/16 11:59:33;;;;;;;;;;;-1.50;99.90;;;;;;4976639;28;19965;-75
2024/01/16 12:02:00;;;;;;;;;;;-1.50;99.90;;;;;;4976958;28;19930;-75
2024/01/16 12:04:27;;;;;;;;;;;-1.50;99.90;;;;;;4975545;28;19930;-75
2024/01/16 12:07:00;;;;;;;;;;;-1.50;99.90;;;;;;4976341;28;19926;-75
2024/01/16 12:09:28;;;;;;;;;;;-1.50;99.90;;;;;;4976260;28;19930;-75
2024/01/16 12:11:58;;;;;;;;;;;-1.50;99.90;;;;;;4976552;28;20009;-75
2024/01/16 12:14:27;;;;;;;;;;;-1.50;99.90;;;;;;4976220;28;19930;-75
2024/01/16 12:16:53;;;;;;;;;;;-1.50;99.90;;;;;;4976993;28;19980;-76
2024/01/16 12:19:20;;;;;;;;;;;-1.50;99.90;;;;;;4980914;28;20395;-75
2024/01/16 12:21:47;;;;;;;;;;;-1.50;99.90;;;;;;4982526;28;19965;-75
2024/01/16 12:24:14;;;;;;;;;;;-1.50;99.90;;;;;;4981321;28;19971;-76
2024/01/16 12:26:41;;;;;;;;;;;-1.50;99.90;;;;;;4982404;28;19932;-76
2024/01/16 12:29:08;;;;;;;;;;;-1.40;99.90;;;;;;4977671;28;20304;-77
2024/01/16 12:31:36;;;;;;;;;;;-1.40;99.90;;;;;;4981691;28;19926;-76
2024/01/16 12:34:07;;;;;;;;;;;-1.30;99.90;;;;;;4981663;28;19926;-76
2024/01/16 12:36:33;;;;;;;;;;;-1.30;99.90;;;;;;4981331;28;20005;-76
2024/01/16 12:39:00;;;;;;;;;;;-1.30;99.90;;;;;;4980992;28;20359;-76
2024/01/16 12:41:31;;;;;;;;;;;-1.30;99.90;;;;;;4977663;28;19930;-76
2024/01/16 12:43:58;;;;;;;;;;;-1.20;99.90;;;;;;4982114;28;19926;-76
2024/01/16 12:46:25;;;;;;;;;;;-1.30;99.90;;;;;;4984635;28;19943;-76
2024/01/16 12:48:54;;;;;;;;;;;-1.30;99.90;;;;;;4980832;28;19932;-76
2024/01/16 12:51:21;;;;;;;;;;;-1.30;99.90;;;;;;4979493;28;19981;-76
2024/01/16 12:53:48;;;;;;;;;;;-1.30;99.90;;;;;;4979398;28;20020;-76
2024/01/16 12:56:19;;;;;;;;;;;-1.30;99.90;;;;;;4978799;28;19933;-76
2024/01/16 12:58:46;;;;;;;;;;;-1.30;99.90;;;;;;4978770;28;19972;-76
2024/01/16 13:01:22;;;;;;;;;;;-1.30;99.90;;;;;;4978739;28;20276;-77
2024/01/16 13:03:50;;;;;;;;;;;-1.30;99.90;;;;;;4978519;28;19993;-76
2024/01/16 13:06:19;;;;;;;;;;;-1.20;99.90;;;;;;4978442;28;20299;-76
2024/01/16 13:08:46;;;;;;;;;;;-1.20;99.90;;;;;;4978348;28;20038;-76
2024/01/16 13:11:15;;;;;;;;;;;-1.20;99.90;;;;;;4978701;28;19980;-75
2024/01/16 13:13:42;;;;;;;;;;;-1.20;99.90;;;;;;4978355;28;19933;-75
2024/01/16 13:16:09;;;;;;;;;;;-1.20;99.90;;;;;;4978664;28;19933;-76
2024/01/16 13:18:35;;;;;;;;;;;-1.20;99.90;;;;;;4979213;28;19926;-76
2024/01/16 13:21:02;;;;;;;;;;;-1.20;99.90;;;;;;4977409;28;19926;-75
2024/01/16 13:23:30;;;;;;;;;;;-1.20;99.90;;;;;;4977706;28;19999;-75
2024/01/16 13:25:59;;;;;;;;;;;-1.20;99.90;;;;;;4977400;28;19926;-75
2024/01/16 13:28:25;;;;;;;;;;;-1.20;99.90;;;;;;4977492;28;19930;-75
2024/01/16 13:30:52;;;;;;;;;;;-1.20;99.90;;;;;;4977292;28;19926;-74
2024/01/16 13:33:19;;;;;;;;;;;-1.20;99.90;;;;;;4977414;28;19933;-74
2024/01/16 13:35:47;;;;;;;;;;;-1.30;99.90;;;;;;4977227;28;20324;-75
2024/01/16 13:38:15;;;;;;;;;;;-1.30;99.90;;;;;;4978061;28;19996;-75
2024/01/16 13:40:44;;;;;;;;;;;-1.30;99.90;;;;;;4976863;28;20013;-75
2024/01/16 13:43:11;;;;;;;;;;;-1.30;99.90;;;;;;4977027;28;20375;-76
2024/01/16 13:45:38;;;;;;;;;;;-1.40;99.90;;;;;;4977246;28;19953;-75
2024/01/16 13:48:05;;;;;;;;;;;-1.40;99.90;;;;;;4977384;28;19926;-76
2024/01/16 13:50:33;;;;;;;;;;;-1.40;99.90;;;;;;4977121;28;19926;-76
2024/01/16 13:52:59;;;;;;;;;;;-1.50;99.90;;;;;;4976605;28;19977;-76
2024/01/16 13:55:26;;;;;;;;;;;-1.50;99.90;;;;;;4976550;28;20388;-76
2024/01/16 13:57:54;;;;;;;;;;;-1.60;99.90;;;;;;4976401;28;19933;-76
2024/01/16 14:00:20;;;;;;;;;;;-1.70;99.90;;;;;;4978289;28;19933;-76
2024/01/16 14:02:48;;;;;;;;;;;-1.70;99.90;;;;;;4977404;28;19926;-76
2024/01/16 14:05:16;;;;;;;;;;;-1.80;99.90;;;;;;4977413;28;19934;-76
2024/01/16 14:07:43;;;;;;;;;;;-1.90;99.90;;;;;;4977219;28;19926;-76
2024/01/16 14:10:11;;;;;;;;;;;-1.90;99.90;;;;;;4979758;28;19930;-76
2024/01/16 14:12:38;;;;;;;;;;;-1.90;99.90;;;;;;4980380;28;19933;-77
2024/01/16 14:15:15;;;;;;;;;;;-2.00;99.90;;;;;;4980107;28;19926;-77
2024/01/16 14:17:42;;;;;;;;;;;-2.10;99.90;;;;;;4979559;28;20384;-75
2024/01/16 14:20:11;;;;;;;;;;;-2.20;99.90;;;;;;4979894;28;19927;-75
2024/01/16 14:22:37;;;;;;;;;;;-2.30;99.90;;;;;;4980022;28;19933;-76
2024/01/16 14:25:10;;;;;;;;;;;-2.30;99.90;;;;;;4980063;28;20019;-76
2024/01/16 14:27:37;;;;;;;;;;;-2.40;99.90;;;;;;4980004;28;19927;-76
2024/01/16 14:30:04;;;;;;;;;;;-2.50;99.90;;;;;;4980060;28;19933;-75
2024/01/16 14:32:32;;;;;;;;;;;-2.60;99.90;;;;;;4980037;28;19926;-77
2024/01/16 14:34:59;;;;;;;;;;;-2.60;99.90;;;;;;4979088;28;19933;-75
2024/01/16 14:37:25;;;;;;;;;;;-2.70;99.90;;;;;;4978498;28;19969;-76
2024/01/16 14:39:52;;;;;;;;;;;-2.80;99.90;;;;;;4977860;28;20107;-76
2024/01/16 14:42:19;;;;;;;;;;;-2.90;99.90;;;;;;4976166;28;19926;-76
2024/01/16 14:44:45;;;;;;;;;;;-3.00;99.90;;;;;;4976112;28;19934;-76
2024/01/16 14:47:12;;;;;;;;;;;-3.00;99.90;;;;;;4976415;28;19933;-76
2024/01/16 14:49:40;;;;;;;;;;;-3.10;99.90;;;;;;4976193;28;19930;-76
2024/01/16 14:52:07;;;;;;;;;;;-3.20;99.90;;;;;;4975690;28;19926;-76
2024/01/16 14:54:34;;;;;;;;;;;-3.20;99.90;;;;;;4975603;28;19926;-76
2024/01/16 14:57:00;;;;;;;;;;;-3.30;99.90;;;;;;4975267;28;19977;-76
2024/01/16 14:59:27;;;;;;;;;;;-3.30;99.90;;;;;;4975622;28;19926;-77
2024/01/16 15:01:54;;;;;;;;;;;-3.40;99.90;;;;;;4975483;28;19926;-77
2024/01/16 15:04:21;;;;;;;;;;;-3.40;99.90;;;;;;4975272;28;20372;-76
2024/01/16 15:06:51;;;;;;;;;;;-3.50;99.90;;;;;;4975516;28;19926;-75
2024/01/16 15:09:18;;;;;;;;;;;-3.50;99.90;;;;;;4974988;28;19984;-75
2024/01/16 15:11:44;;;;;;;;;;;-3.50;99.90;;;;;;4975519;28;19965;-75
2024/01/16 15:14:12;;;;;;;;;;;-3.50;99.90;;;;;;4975893;28;19930;-75
2024/01/16 15:16:38;;;;;;;;;;;-3.50;99.90;;;;;;4975393;28;19998;-75
2024/01/16 15:19:05;;;;;;;;;;;-3.60;99.90;;;;;;4975782;28;19933;-76
2024/01/16 15:21:31;;;;;;;;;;;-3.70;99.90;;;;;;4975830;28;19926;-75
2024/01/16 15:23:59;;;;;;;;;;;-3.70;99.90;;;;;;4976356;28;20403;-75
2024/01/16 15:26:26;;;;;;;;;;;-3.90;99.90;;;;;;4975457;28;20021;-75
2024/01/16 15:28:52;;;;;;;;;;;-3.90;99.90;;;;;;4975812;28;20311;-75
2024/01/16 15:31:21;;;;;;;;;;;-4.00;99.90;;;;;;4975262;28;20402;-75
2024/01/16 15:33:47;;;;;;;;;;;-4.10;99.90;;;;;;4975672;28;20352;-76
2024/01/16 15:36:14;;;;;;;;;;;-4.20;99.90;;;;;;4975881;28;20272;-75
2024/01/16 15:38:41;;;;;;;;;;;-4.20;99.90;;;;;;4975622;28;19933;-75
2024/01/16 15:41:09;;;;;;;;;;;-4.30;99.90;;;;;;4975394;28;19926;-75
2024/01/16 15:43:35;;;;;;;;;;;-4.40;99.90;;;;;;4975358;28;19930;-75
2024/01/16 15:46:03;;;;;;;;;;;-4.40;99.90;;;;;;4976133;28;19926;-75
2024/01/16 15:48:33;;;;;;;;;;;-4.50;99.90;;;;;;4975945;28;19926;-75
2024/01/16 15:51:00;;;;;;;;;;;-4.60;99.90;;;;;;4976341;28;19926;-75
2024/01/16 15:53:26;;;;;;;;;;;-4.60;99.90;;;;;;4975984;28;20407;-75
2024/01/16 15:55:53;;;;;;;;;;;-4.70;99.90;;;;;;4985891;28;19926;-75
2024/01/16 15:58:21;;;;;;;;;;;-4.80;99.90;;;;;;4995078;28;19936;-75
2024/01/16 16:00:47;;;;;;;;;;;-4.90;99.90;;;;;;4990834;28;19932;-75
2024/01/16 16:03:14;;;;;;;;;;;-4.90;99.90;;;;;;4976089;28;19926;-75
2024/01/16 16:05:41;;;;;;;;;;;-5.00;99.90;;;;;;4974962;28;19933;-75
2024/01/16 16:08:07;;;;;;;;;;;-5.00;99.90;;;;;;4974935;28;19926;-75
2024/01/16 16:10:35;;;;;;;;;;;-5.00;99.90;;;;;;4974747;28;19933;-75
2024/01/16 16:13:04;;;;;;;;;;;-5.10;99.90;;;;;;4974697;28;19972;-75
2024/01/16 16:15:32;;;;;;;;;;;-5.20;99.90;;;;;;4975319;28;19933;-76
2024/01/16 16:17:59;;;;;;;;;;;-5.30;99.90;;;;;;4974956;28;19926;-76
2024/01/16 16:20:25;;;;;;;;;;;-5.30;99.90;;;;;;4976827;28;19988;-76
2024/01/16 16:22:53;;;;;;;;;;;-5.40;99.90;;;;;;4978424;28;19934;-76
2024/01/16 16:25:19;;;;;;;;;;;-5.40;99.90;;;;;;4978033;28;19926;-76
2024/01/16 16:27:47;;;;;;;;;;;-5.50;99.90;;;;;;4978192;28;19926;-76
2024/01/16 16:30:14;;;;;;;;;;;-5.60;99.90;;;;;;4978135;28;19926;-76
2024/01/16 16:32:42;;;;;;;;;;;-5.60;99.90;;;;;;4978306;28;19926;-76
2024/01/16 16:35:09;;;;;;;;;;;-5.60;99.90;;;;;;4978566;28;19949;-76
2024/01/16 16:37:36;;;;;;;;;;;-5.70;99.90;;;;;;4978080;28;19933;-76
2024/01/16 16:40:04;;;;;;;;;;;-5.70;99.90;;;;;;4978129;28;19930;-76
2024/01/16 16:42:31;;;;;;;;;;;-5.70;99.90;;;;;;4978010;28;19973;-76
2024/01/16 16:44:58;;;;;;;;;;;-5.80;99.90;;;;;;4977903;28;19926;-76
2024/01/16 16:47:25;;;;;;;;;;;-5.80;99.90;;;;;;4978983;28;19926;-75
2024/01/16 16:49:53;;;;;;;;;;;-5.80;99.90;;;;;;4978406;28;19926;-75
2024/01/16 16:52:20;;;;;;;;;;;-5.90;99.90;;;;;;4979998;28;19926;-75
2024/01/16 16:54:48;;;;;;;;;;;-5.90;99.90;;;;;;4977996;28;19972;-76
2024/01/16 16:57:14;;;;;;;;;;;-6.00;99.90;;;;;;4978885;28;20384;-75
2024/01/16 16:59:41;;;;;;;;;;;-6.00;99.90;;;;;;4978147;28;19949;-75
2024/01/16 17:02:08;;;;;;;;;;;-6.00;99.90;;;;;;4978149;28;19926;-75
2024/01/16 17:04:34;;;;;;;;;;;-6.00;99.90;;;;;;4978146;28;19926;-75
2024/01/16 17:07:02;;;;;;;;;;;-6.10;99.90;;;;;;4978282;28;19926;-75
2024/01/16 17:09:29;;;;;;;;;;;-6.10;99.90;;;;;;4978814;28;19926;-75
2024/01/16 17:11:55;;;;;;;;;;;-6.10;99.90;;;;;;4978516;28;19927;-75
2024/01/16 17:14:23;;;;;;;;;;;-6.10;99.90;;;;;;4978108;28;19926;-75
2024/01/16 17:16:49;;;;;;;;;;;-6.70;99.90;;;;;;4978611;28;19926;-75
2024/01/16 17:19:16;;;;;;;;;;;-6.30;99.90;;;;;;4978163;28;19925;-74
2024/01/16 17:21:43;;;;;;;;;;;-6.40;99.90;;;;;;4977661;28;20360;-73
2024/01/16 17:24:11;;;;;;;;;;;-6.40;99.90;;;;;;4977818;28;20384;-74
2024/01/16 17:26:39;;;;;;;;;;;-6.30;99.90;;;;;;4977601;28;20384;-75
2024/01/16 17:29:05;;;;;;;;;;;-6.30;99.90;;;;;;4977795;28;20046;-76
2024/01/16 17:31:32;;;;;;;;;;;-6.50;99.90;;;;;;4976378;28;20383;-76
2024/01/16 17:33:59;;;;;;;;;;;-6.60;99.90;;;;;;4978153;28;19929;-75
2024/01/16 17:36:28;;;;;;;;;;;-6.40;99.90;;;;;;4977575;28;19976;-75
2024/01/16 17:38:58;;;;;;;;;;;-6.60;99.90;;;;;;4977572;28;19926;-75
2024/01/16 17:41:28;;;;;;;;;;;-6.60;99.90;;;;;;4977562;28;19973;-76
2024/01/16 17:43:55;;;;;;;;;;;-6.60;99.90;;;;;;4977492;28;19926;-75
2024/01/16 17:46:22;;;;;;;;;;;-6.70;99.90;;;;;;4977201;28;19926;-75
2024/01/16 17:48:48;;;;;;;;;;;-6.70;99.90;;;;;;4978109;28;19927;-75
2024/01/16 17:51:15;;;;;;;;;;;-6.80;99.90;;;;;;4977230;28;19932;-77
2024/01/16 17:53:43;;;;;;;;;;;-6.80;99.90;;;;;;4976505;28;20306;-77
2024/01/16 17:56:12;;;;;;;;;;;-6.80;99.90;;;;;;4976749;28;19933;-77
2024/01/16 17:58:40;;;;;;;;;;;-6.90;99.90;;;;;;4976605;28;19925;-77
2024/01/16 18:01:11;;;;;;;;;;;-6.80;99.90;;;;;;4976620;28;19926;-76
2024/01/16 18:03:38;;;;;;;;;;;-6.90;99.90;;;;;;4976907;28;20280;-77
2024/01/16 18:06:06;;;;;;;;;;;-6.90;99.90;;;;;;4976682;28;19933;-77
2024/01/16 18:08:33;;;;;;;;;;;-6.90;99.90;;;;;;4976196;28;19926;-76
2024/01/16 18:11:00;;;;;;;;;;;-7.00;99.90;;;;;;4976408;28;20017;-77
2024/01/16 18:13:28;;;;;;;;;;;-7.00;99.90;;;;;;4976605;28;19930;-76
2024/01/16 18:15:58;;;;;;;;;;;-7.00;99.90;;;;;;4976306;28;20364;-75
2024/01/16 18:18:24;;;;;;;;;;;-7.10;99.90;;;;;;4976419;28;19933;-76
2024/01/16 18:20:51;;;;;;;;;;;-7.10;99.90;;;;;;4976647;28;19926;-75
2024/01/16 18:23:19;;;;;;;;;;;-7.10;99.90;;;;;;4976419;28;19933;-76
2024/01/16 18:25:46;;;;;;;;;;;-7.10;99.90;;;;;;4978759;28;19926;-76
2024/01/16 18:28:13;;;;;;;;;;;-7.20;99.90;;;;;;4979717;28;20336;-76
2024/01/16 18:30:39;;;;;;;;;;;-7.20;99.90;;;;;;4981072;28;19933;-76
2024/01/16 18:33:07;;;;;;;;;;;-7.20;99.90;;;;;;4981142;28;19926;-75
2024/01/16 18:35:34;;;;;;;;;;;-7.20;99.90;;;;;;4979888;28;19930;-75
2024/01/16 18:38:00;;;;;;;;;;;-7.30;99.90;;;;;;4981141;28;19926;-73
2024/01/16 18:40:27;;;;;;;;;;;-7.30;99.90;;;;;;4980204;28;19926;-74
2024/01/16 18:42:54;;;;;;;;;;;-7.30;99.90;;;;;;4981928;28;20410;-74
2024/01/16 18:45:21;;;;;;;;;;;-7.30;99.90;;;;;;4979859;28;19935;-73
2024/01/16 18:47:50;;;;;;;;;;;-7.40;99.90;;;;;;4979587;28;20372;-74
2024/01/16 18:50:19;;;;;;;;;;;-7.40;99.90;;;;;;4980591;28;19925;-74
2024/01/16 18:52:46;;;;;;;;;;;-7.40;99.90;;;;;;4981960;28;20267;-73
2024/01/16 18:55:13;;;;;;;;;;;-7.60;99.90;;;;;;4979878;28;19926;-72
2024/01/16 18:57:42;;;;;;;;;;;-7.50;99.90;;;;;;4979181;28;19926;-73
2024/01/16 19:00:13;;;;;;;;;;;-7.50;99.90;;;;;;4980148;28;19926;-73
2024/01/16 19:02:40;;;;;;;;;;;-7.50;99.90;;;;;;4976974;28;19966;-72
2024/01/16 19:05:11;;;;;;;;;;;-7.60;99.90;;;;;;4977648;28;19926;-73
2024/01/16 19:07:40;;;;;;;;;;;-7.50;99.90;;;;;;4977963;28;20025;-74
2024/01/16 19:10:12;;;;;;;;;;;-7.50;99.90;;;;;;4977839;28;19926;-73
2024/01/16 19:12:39;;;;;;;;;;;-7.60;99.90;;;;;;4977309;28;19957;-72
2024/01/16 19:15:06;;;;;;;;;;;-7.60;99.90;;;;;;4978323;28;19926;-73
2024/01/16 19:17:34;;;;;;;;;;;-7.60;99.90;;;;;;4988121;28;19926;-72
2024/01/16 19:20:03;;;;;;;;;;;-7.60;99.90;;;;;;4993807;28;19933;-73
2024/01/16 19:22:30;;;;;;;;;;;-7.60;99.90;;;;;;4983244;28;20422;-74
2024/01/16 19:24:59;;;;;;;;;;;-7.60;99.90;;;;;;4977164;28;19926;-73
2024/01/16 19:27:27;;;;;;;;;;;-7.60;99.90;;;;;;4978556;28;19952;-74
2024/01/16 19:29:54;;;;;;;;;;;-7.70;99.90;;;;;;4977801;28;19937;-73
2024/01/16 19:32:20;;;;;;;;;;;-7.60;99.90;;;;;;4977649;28;19926;-73
2024/01/16 19:34:47;;;;;;;;;;;-7.70;99.90;;;;;;4977265;28;19926;-75
2024/01/16 19:37:16;;;;;;;;;;;-7.70;99.90;;;;;;4977438;28;20058;-73
2024/01/16 19:39:56;;;;;;;;;;;-7.70;99.90;;;;;;4977539;28;20384;-75
2024/01/16 19:42:24;;;;;;;;;;;-7.70;99.90;;;;;;4978119;28;19989;-74
2024/01/16 19:44:51;;;;;;;;;;;-7.70;99.90;;;;;;4977936;28;19933;-73
2024/01/16 19:47:17;;;;;;;;;;;-7.60;99.90;;;;;;4978701;28;19933;-75
2024/01/16 19:49:44;;;;;;;;;;;-7.80;99.90;;;;;;4979289;28;19933;-75
2024/01/16 19:52:14;;;;;;;;;;;-7.80;99.90;;;;;;4977035;28;19926;-76
2024/01/16 19:54:43;;;;;;;;;;;-7.80;99.90;;;;;;4977932;28;19933;-75
2024/01/16 19:57:10;;;;;;;;;;;-7.80;99.90;;;;;;4980161;28;19926;-73
2024/01/16 19:59:38;;;;;;;;;;;-7.80;99.90;;;;;;4980819;28;20367;-73
2024/01/16 20:02:06;;;;;;;;;;;-7.80;99.90;;;;;;4979768;28;19930;-74
2024/01/16 20:04:33;;;;;;;;;;;-7.90;99.90;;;;;;4979954;28;19926;-73
2024/01/16 20:06:59;;;;;;;;;;;-7.80;99.90;;;;;;4979583;28;20269;-74
2024/01/16 20:09:26;;;;;;;;;;;-7.80;99.90;;;;;;4979732;28;20312;-75
2024/01/16 20:11:54;;;;;;;;;;;-7.90;99.90;;;;;;4979902;28;19968;-74
2024/01/16 20:14:21;;;;;;;;;;;-7.90;99.90;;;;;;4979342;28;19926;-73
2024/01/16 20:16:49;;;;;;;;;;;-7.70;99.90;;;;;;4979610;28;19926;-71
2024/01/16 20:19:15;;;;;;;;;;;-7.80;99.90;;;;;;4980253;28;19926;-70
2024/01/16 20:21:44;;;;;;;;;;;-7.80;99.90;;;;;;4979861;28;19926;-69
2024/01/16 20:24:11;;;;;;;;;;;-7.80;99.90;;;;;;4980009;28;20021;-71
2024/01/16 20:26:37;;;;;;;;;;;-7.80;99.90;;;;;;4979727;28;19933;-70
2024/01/16 20:29:05;;;;;;;;;;;-7.60;99.90;;;;;;4979987;28;19934;-70
2024/01/16 20:31:33;;;;;;;;;;;-7.60;99.90;;;;;;4980026;28;19933;-69
2024/01/16 20:34:01;;;;;;;;;;;-7.60;99.90;;;;;;4980211;28;19961;-69
2024/01/16 20:36:28;;;;;;;;;;;-7.60;99.90;;;;;;4979838;28;19926;-70
2024/01/16 20:38:55;;;;;;;;;;;-7.50;99.90;;;;;;4979499;28;19930;-70
2024/01/16 20:41:22;;;;;;;;;;;-7.30;99.90;;;;;;4979663;28;19926;-73
2024/01/16 20:43:48;;;;;;;;;;;-7.20;99.90;;;;;;4979618;28;20277;-71
2024/01/16 20:46:15;;;;;;;;;;;-7.10;99.90;;;;;;4979480;28;19930;-73
2024/01/16 20:48:43;;;;;;;;;;;-7.20;99.90;;;;;;4980003;28;20013;-73
